createdAt,value
2018-10-19T00:01:50.933Z,19.20
2018-10-19T00:04:19.269Z,18.37
2018-10-19T00:06:47.579Z,18.00
2018-10-19T00:09:15.972Z,18.40
2018-10-19T00:11:44.248Z,19.40
2018-10-19T00:14:12.580Z,18.93
2018-10-19T00:16:40.909Z,19.43
2018-10-19T00:19:09.238Z,20.10
2018-10-19T00:21:37.553Z,20.30
2018-10-19T00:24:05.945Z,20.40
2018-10-19T00:26:34.267Z,20.37
2018-10-19T00:29:02.648Z,20.40
2018-10-19T00:31:30.912Z,19.07
2018-10-19T00:33:59.241Z,19.47
2018-10-19T00:36:27.545Z,19.33
2018-10-19T00:38:55.931Z,19.67
2018-10-19T00:41:24.197Z,20.60
2018-10-19T00:43:52.537Z,19.57
2018-10-19T00:46:20.835Z,20.20
2018-10-19T00:48:49.177Z,20.07
2018-10-19T00:51:17.557Z,20.70
2018-10-19T00:53:45.871Z,20.57
2018-10-19T00:56:14.189Z,21.20
2018-10-19T00:58:42.510Z,21.00
2018-10-19T01:01:10.839Z,21.70
2018-10-19T01:03:39.306Z,21.57
2018-10-19T01:06:07.585Z,22.90
2018-10-19T01:08:35.933Z,21.83
2018-10-19T01:11:04.498Z,21.27
2018-10-19T01:13:32.804Z,22.30
2018-10-19T01:16:01.195Z,21.77
2018-10-19T01:18:29.526Z,20.63
2018-10-19T01:20:57.877Z,21.17
2018-10-19T01:23:26.184Z,21.00
2018-10-19T01:25:54.517Z,21.17
2018-10-19T01:28:22.956Z,21.83
2018-10-19T01:30:51.273Z,22.57
2018-10-19T01:33:19.613Z,22.77
2018-10-19T01:35:47.922Z,23.30
2018-10-19T01:38:16.244Z,25.17
2018-10-19T01:40:44.549Z,23.83
2018-10-19T01:43:12.881Z,24.53
2018-10-19T01:45:46.489Z,24.10
2018-10-19T01:48:14.829Z,24.23
2018-10-19T01:50:43.157Z,23.70
2018-10-19T01:53:11.549Z,22.67
2018-10-19T01:55:39.799Z,24.13
2018-10-19T01:58:08.100Z,24.60
2018-10-19T02:00:36.429Z,22.87
2018-10-19T02:03:04.900Z,22.23
2018-10-19T02:05:33.218Z,23.77
2018-10-19T02:08:01.709Z,21.90
2018-10-19T02:10:30.206Z,22.33
2018-10-19T02:12:58.545Z,23.27
2018-10-19T02:15:26.869Z,23.00
2018-10-19T02:17:55.197Z,23.57
2018-10-19T02:20:23.521Z,22.33
2018-10-19T02:22:51.825Z,24.70
2018-10-19T02:25:20.144Z,25.43
2018-10-19T02:27:48.473Z,24.47
2018-10-19T02:30:16.829Z,25.83
2018-10-19T02:32:45.142Z,25.50
2018-10-19T02:35:13.522Z,25.87
2018-10-19T02:37:41.792Z,26.63
2018-10-19T02:40:10.659Z,27.53
2018-10-19T02:42:39.072Z,24.10
2018-10-19T02:45:08.552Z,24.23
2018-10-19T02:47:36.751Z,24.83
2018-10-19T02:50:06.041Z,24.93
2018-10-19T02:52:34.345Z,26.93
2018-10-19T02:55:02.861Z,25.87
2018-10-19T02:57:31.327Z,24.37
2018-10-19T02:59:59.661Z,25.13
2018-10-19T03:02:27.957Z,23.53
2018-10-19T03:04:56.342Z,24.53
2018-10-19T03:07:24.629Z,25.43
2018-10-19T03:09:52.959Z,25.50
2018-10-19T03:12:21.269Z,23.07
2018-10-19T03:14:49.589Z,25.50
2018-10-19T03:17:17.918Z,26.70
2018-10-19T03:19:46.249Z,23.77
2018-10-19T03:22:14.552Z,24.17
2018-10-19T03:24:42.876Z,23.50
2018-10-19T03:27:11.228Z,26.03
2018-10-19T03:29:39.542Z,23.77
2018-10-19T03:32:07.869Z,23.20
2018-10-19T03:34:36.201Z,24.03
2018-10-19T03:37:04.870Z,24.20
2018-10-19T03:39:33.205Z,24.03
2018-10-19T03:42:01.518Z,22.93
2018-10-19T03:44:29.845Z,20.57
2018-10-19T03:46:58.206Z,18.70
2018-10-19T03:49:26.489Z,17.50
2018-10-19T03:51:54.789Z,20.07
2018-10-19T03:54:23.113Z,18.77
2018-10-19T03:56:51.425Z,18.20
2018-10-19T03:59:19.818Z,18.07
2018-10-19T04:01:48.077Z,19.07
2018-10-19T04:04:16.402Z,16.40
2018-10-19T04:06:44.713Z,18.33
2018-10-19T04:09:13.893Z,17.20
2018-10-19T04:11:42.357Z,17.43
2018-10-19T04:14:11.801Z,17.50
2018-10-19T04:16:40.350Z,17.03
2018-10-19T04:19:09.366Z,17.10
2018-10-19T04:21:37.674Z,16.97
2018-10-19T04:24:06.734Z,19.20
2018-10-19T04:26:35.231Z,22.67
2018-10-19T04:29:03.792Z,21.07
2018-10-19T04:31:32.120Z,20.50
2018-10-19T04:34:00.446Z,20.50
2018-10-19T04:36:28.774Z,22.10
2018-10-19T04:38:57.130Z,21.67
2018-10-19T04:41:25.499Z,20.77
2018-10-19T04:43:53.770Z,21.00
2018-10-19T04:46:22.110Z,20.87
2018-10-19T04:48:50.410Z,18.87
2018-10-19T04:51:18.906Z,18.67
2018-10-19T04:53:47.089Z,20.27
2018-10-19T04:56:15.439Z,20.67
2018-10-19T04:58:43.753Z,19.50
2018-10-19T05:01:12.170Z,19.23
2018-10-19T05:03:40.472Z,22.43
2018-10-19T05:06:08.915Z,22.43
2018-10-19T05:08:37.145Z,20.77
2018-10-19T05:11:05.822Z,19.03
2018-10-19T05:13:34.169Z,20.40
2018-10-19T05:16:03.701Z,18.73
2018-10-19T05:18:36.653Z,20.57
2018-10-19T05:21:05.041Z,19.87
2018-10-19T05:23:33.366Z,19.43
2018-10-19T05:26:01.757Z,20.70
2018-10-19T05:28:30.043Z,21.60
2018-10-19T05:30:58.369Z,20.27
2018-10-19T05:33:26.675Z,19.60
2018-10-19T05:35:55.013Z,19.53
2018-10-19T05:38:23.320Z,18.07
2018-10-19T05:40:51.645Z,20.43
2018-10-19T05:43:20.539Z,20.33
2018-10-19T05:45:48.868Z,19.67
2018-10-19T05:48:17.223Z,18.43
2018-10-19T05:50:45.555Z,20.53
2018-10-19T05:53:14.107Z,21.47
2018-10-19T05:55:44.528Z,19.70
2018-10-19T05:58:12.840Z,20.10
2018-10-19T06:00:41.196Z,24.47
2018-10-19T06:03:09.517Z,19.77
2018-10-19T06:05:37.845Z,18.67
2018-10-19T06:08:06.232Z,19.90
2018-10-19T06:10:34.523Z,17.57
2018-10-19T06:13:02.854Z,17.97
2018-10-19T06:15:31.191Z,19.73
2018-10-19T06:17:59.510Z,18.43
2018-10-19T06:20:27.849Z,20.43
2018-10-19T06:22:56.799Z,19.20
2018-10-19T06:25:25.203Z,20.07
2018-10-19T06:27:53.511Z,17.57
2018-10-19T06:30:21.849Z,20.00
2018-10-19T06:32:50.249Z,20.00
2018-10-19T06:35:18.585Z,18.97
2018-10-19T06:37:46.905Z,20.20
2018-10-19T06:40:15.242Z,18.77
2018-10-19T06:42:43.546Z,20.20
2018-10-19T06:45:11.890Z,20.27
2018-10-19T06:47:40.226Z,21.30
2018-10-19T06:50:10.371Z,22.27
2018-10-19T06:52:38.826Z,20.47
2018-10-19T06:55:08.450Z,21.80
2018-10-19T06:57:36.774Z,20.43
2018-10-19T07:00:05.585Z,20.77
2018-10-19T07:02:33.910Z,22.07
2018-10-19T07:05:02.251Z,22.20
2018-10-19T07:07:30.602Z,22.83
2018-10-19T07:09:58.942Z,23.00
2018-10-19T07:12:27.293Z,24.37
2018-10-19T07:14:55.629Z,24.10
2018-10-19T07:17:23.981Z,25.20
2018-10-19T07:19:52.301Z,24.07
2018-10-19T07:22:20.633Z,23.83
2018-10-19T07:24:49.040Z,24.57
2018-10-19T07:27:17.386Z,27.10
2018-10-19T07:29:45.714Z,27.30
2018-10-19T07:32:14.097Z,24.70
2018-10-19T07:34:42.362Z,27.87
2018-10-19T07:37:10.698Z,29.00
2018-10-19T07:39:39.019Z,28.10
2018-10-19T07:42:07.481Z,27.83
2018-10-19T07:44:35.688Z,28.70
2018-10-19T07:47:04.113Z,28.93
2018-10-19T07:49:32.433Z,27.30
2018-10-19T07:52:00.795Z,27.13
2018-10-19T07:54:32.161Z,23.13
2018-10-19T07:57:00.754Z,25.80
2018-10-19T07:59:42.561Z,28.40
2018-10-19T08:02:17.609Z,24.60
2018-10-19T08:04:45.935Z,22.80
2018-10-19T08:07:23.902Z,22.63
2018-10-19T08:09:52.233Z,27.17
2018-10-19T08:12:20.559Z,18.23
2018-10-19T08:14:48.889Z,22.90
2018-10-19T08:17:17.333Z,26.00
2018-10-19T08:19:45.649Z,26.70
2018-10-19T08:22:13.997Z,29.10
2018-10-19T08:24:42.359Z,20.83
2018-10-19T08:27:10.696Z,23.20
2018-10-19T08:29:39.027Z,25.87
2018-10-19T08:32:07.712Z,27.30
2018-10-19T08:34:36.013Z,27.07
2018-10-19T08:37:04.384Z,28.83
2018-10-19T08:39:32.718Z,26.37
2018-10-19T08:42:01.076Z,27.73
2018-10-19T08:44:29.391Z,29.13
2018-10-19T08:46:57.767Z,28.63
2018-10-19T08:49:26.053Z,29.83
2018-10-19T08:51:54.380Z,28.87
2018-10-19T08:54:22.709Z,27.93
2018-10-19T08:56:51.039Z,29.73
2018-10-19T08:59:19.387Z,29.90
2018-10-19T09:01:47.709Z,28.47
2018-10-19T09:04:16.085Z,29.17
2018-10-19T09:06:44.372Z,30.63
2018-10-19T09:09:12.785Z,29.67
2018-10-19T09:11:41.539Z,31.50
2018-10-19T09:14:21.157Z,29.33
2018-10-19T09:16:49.521Z,30.13
2018-10-19T09:19:18.109Z,30.40
2018-10-19T09:21:46.549Z,30.60
2018-10-19T09:24:14.881Z,31.53
2018-10-19T09:26:44.257Z,33.83
2018-10-19T09:29:13.244Z,32.73
2018-10-19T09:31:41.497Z,32.20
2018-10-19T09:34:09.834Z,32.90
2018-10-19T09:36:38.191Z,32.57
2018-10-19T09:39:09.692Z,31.93
2018-10-19T09:41:37.969Z,32.93
2018-10-19T09:44:06.330Z,32.10
2018-10-19T09:46:36.934Z,33.43
2018-10-19T09:49:06.043Z,33.13
2018-10-19T09:51:34.422Z,34.23
2018-10-19T09:54:02.769Z,33.10
2018-10-19T09:56:31.131Z,32.87
2018-10-19T09:58:59.516Z,33.93
2018-10-19T10:01:28.413Z,33.57
2018-10-19T10:03:56.781Z,30.97
2018-10-19T10:06:25.109Z,31.97
2018-10-19T10:08:53.483Z,33.17
2018-10-19T10:11:21.807Z,33.37
2018-10-19T10:13:50.217Z,35.40
2018-10-19T10:16:18.657Z,33.03
2018-10-19T10:18:46.965Z,31.13
2018-10-19T10:21:15.293Z,33.00
2018-10-19T10:23:44.057Z,34.13
2018-10-19T10:26:13.006Z,34.97
2018-10-19T10:28:41.342Z,33.70
2018-10-19T10:31:09.672Z,31.53
2018-10-19T10:33:37.989Z,32.00
2018-10-19T10:36:06.301Z,31.27
2018-10-19T10:38:34.635Z,32.53
2018-10-19T10:41:02.952Z,33.70
2018-10-19T10:43:31.284Z,33.97
2018-10-19T10:45:59.615Z,32.57
2018-10-19T10:48:27.974Z,34.10
2018-10-19T10:50:56.784Z,35.00
2018-10-19T10:53:25.144Z,35.07
2018-10-19T10:55:53.453Z,34.43
2018-10-19T10:58:21.811Z,32.90
2018-10-19T11:00:50.128Z,33.53
2018-10-19T11:03:18.459Z,32.70
2018-10-19T11:05:47.213Z,35.03
2018-10-19T11:08:16.255Z,35.27
2018-10-19T11:10:44.594Z,36.00
2018-10-19T11:13:12.973Z,34.20
2018-10-19T11:15:41.294Z,33.63
2018-10-19T11:18:09.645Z,31.80
2018-10-19T11:20:37.981Z,30.47
2018-10-19T11:23:06.375Z,33.77
2018-10-19T11:25:34.705Z,34.87
2018-10-19T11:28:03.053Z,32.40
2018-10-19T11:30:31.430Z,33.63
2018-10-19T11:32:59.725Z,34.37
2018-10-19T11:35:28.065Z,32.00
2018-10-19T11:37:56.446Z,28.73
2018-10-19T11:40:28.690Z,31.57
2018-10-19T11:42:57.356Z,31.57
2018-10-19T11:45:26.970Z,30.43
2018-10-19T11:47:55.290Z,31.40
2018-10-19T11:50:23.650Z,33.17
2018-10-19T11:52:52.013Z,32.83
2018-10-19T11:55:20.354Z,33.87
2018-10-19T11:57:49.453Z,32.33
2018-10-19T12:00:17.837Z,35.10
2018-10-19T12:02:46.158Z,33.03
2018-10-19T12:05:14.542Z,36.57
2018-10-19T12:07:42.898Z,34.27
2018-10-19T12:10:12.276Z,35.17
2018-10-19T12:12:40.944Z,33.57
2018-10-19T12:15:11.112Z,32.90
2018-10-19T12:17:39.866Z,34.53
2018-10-19T12:20:11.320Z,36.33
2018-10-19T12:22:39.680Z,35.20
2018-10-19T12:25:09.217Z,32.63
2018-10-19T12:27:37.981Z,36.03
2018-10-19T12:30:06.822Z,36.87
2018-10-19T12:32:35.149Z,35.87
2018-10-19T12:35:03.498Z,35.37
2018-10-19T12:37:31.816Z,35.63
2018-10-19T12:40:00.182Z,32.93
2018-10-19T12:42:28.548Z,33.40
2018-10-19T12:44:56.906Z,32.80
2018-10-19T12:47:35.957Z,34.47
2018-10-19T12:50:04.390Z,36.07
2018-10-19T12:52:32.705Z,36.73
2018-10-19T12:55:01.197Z,34.53
2018-10-19T12:57:29.406Z,34.50
2018-10-19T12:59:57.734Z,32.80
2018-10-19T13:02:26.138Z,33.17
2018-10-19T13:04:54.497Z,35.23
2018-10-19T13:07:23.089Z,34.80
2018-10-19T13:09:51.477Z,36.77
2018-10-19T13:12:19.795Z,34.47
2018-10-19T13:14:48.138Z,34.23
2018-10-19T13:17:16.457Z,34.43
2018-10-19T13:19:44.964Z,35.20
2018-10-19T13:22:13.313Z,34.07
2018-10-19T13:24:41.637Z,32.90
2018-10-19T13:27:10.053Z,33.47
2018-10-19T13:29:38.330Z,30.47
2018-10-19T13:32:06.681Z,33.23
2018-10-19T13:34:35.004Z,32.27
2018-10-19T13:37:03.377Z,33.20
2018-10-19T13:39:31.690Z,27.07
2018-10-19T13:42:00.029Z,27.67
2018-10-19T13:44:28.345Z,30.93
2018-10-19T13:46:56.703Z,32.57
2018-10-19T13:49:25.008Z,31.97
2018-10-19T13:51:53.342Z,32.87
2018-10-19T13:54:21.650Z,33.57
2018-10-19T13:56:49.989Z,33.17
2018-10-19T13:59:18.309Z,32.60
2018-10-19T14:01:46.652Z,33.00
2018-10-19T14:04:14.976Z,32.47
2018-10-19T14:06:43.313Z,32.43
2018-10-19T14:09:11.651Z,32.27
2018-10-19T14:11:40.425Z,31.97
2018-10-19T14:14:08.737Z,33.03
2018-10-19T14:16:37.104Z,31.83
2018-10-19T14:19:05.511Z,31.77
2018-10-19T14:21:33.801Z,27.77
2018-10-19T14:24:02.105Z,30.80
2018-10-19T14:26:30.478Z,32.60
2018-10-19T14:28:58.814Z,32.30
2018-10-19T14:31:27.142Z,30.93
2018-10-19T14:33:55.456Z,31.73
2018-10-19T14:36:23.809Z,31.23
2018-10-19T14:38:52.129Z,30.67
2018-10-19T14:41:20.469Z,31.23
2018-10-19T14:43:48.824Z,30.53
2018-10-19T14:46:17.165Z,30.70
2018-10-19T14:48:45.519Z,28.63
2018-10-19T14:51:13.888Z,31.37
2018-10-19T14:53:42.156Z,29.80
2018-10-19T14:56:10.464Z,31.67
2018-10-19T14:58:38.837Z,30.93
2018-10-19T15:01:07.152Z,30.03
2018-10-19T15:03:35.493Z,28.80
2018-10-19T15:06:03.830Z,30.97
2018-10-19T15:08:32.157Z,31.90
2018-10-19T15:11:00.683Z,31.73
2018-10-19T15:13:28.832Z,30.87
2018-10-19T15:15:57.159Z,31.90
2018-10-19T15:18:25.527Z,31.40
2018-10-19T15:20:53.819Z,31.53
2018-10-19T15:23:22.207Z,31.23
2018-10-19T15:25:50.522Z,29.33
2018-10-19T15:28:18.858Z,30.00
2018-10-19T15:30:47.175Z,29.03
2018-10-19T15:33:15.554Z,30.30
2018-10-19T15:35:43.846Z,28.40
2018-10-19T15:38:12.192Z,29.23
2018-10-19T15:40:40.517Z,29.33
2018-10-19T15:43:08.850Z,28.63
2018-10-19T15:45:37.166Z,29.67
2018-10-19T15:48:05.641Z,28.70
2018-10-19T15:50:33.985Z,29.30
2018-10-19T15:53:02.333Z,28.10
2018-10-19T15:55:30.642Z,28.40
2018-10-19T15:57:58.995Z,29.17
2018-10-19T16:00:27.403Z,28.93
2018-10-19T16:02:55.671Z,28.13
2018-10-19T16:05:23.981Z,29.50
2018-10-19T16:07:52.308Z,28.87
2018-10-19T16:10:20.625Z,29.00
2018-10-19T16:12:49.787Z,28.20
2018-10-19T16:15:18.160Z,27.47
2018-10-19T16:17:46.493Z,28.63
2018-10-19T16:20:14.769Z,27.23
2018-10-19T16:22:43.111Z,29.37
2018-10-19T16:25:11.433Z,30.47
2018-10-19T16:27:39.922Z,28.93
2018-10-19T16:30:09.492Z,30.43
2018-10-19T16:32:38.293Z,30.50
2018-10-19T16:35:06.854Z,29.27
2018-10-19T16:37:35.218Z,28.70
2018-10-19T16:40:03.630Z,27.97
2018-10-19T16:42:31.938Z,26.90
2018-10-19T16:45:00.269Z,27.20
2018-10-19T16:47:28.605Z,27.17
2018-10-19T16:49:56.924Z,26.83
2018-10-19T16:52:25.327Z,26.47
2018-10-19T16:54:53.574Z,26.10
2018-10-19T16:57:21.878Z,25.63
2018-10-19T16:59:50.210Z,26.77
2018-10-19T17:02:18.514Z,26.23
2018-10-19T17:04:46.942Z,26.27
2018-10-19T17:07:15.214Z,26.13
2018-10-19T17:09:50.234Z,27.03
2018-10-19T17:12:18.578Z,26.93
2018-10-19T17:14:46.913Z,26.83
2018-10-19T17:17:15.221Z,25.07
2018-10-19T17:19:43.554Z,25.73
2018-10-19T17:22:11.877Z,26.10
2018-10-19T17:24:40.211Z,26.20
2018-10-19T17:27:08.563Z,26.70
2018-10-19T17:29:36.894Z,27.53
2018-10-19T17:32:05.354Z,28.23
2018-10-19T17:34:33.693Z,28.30
2018-10-19T17:37:02.048Z,27.80
2018-10-19T17:39:30.354Z,28.90
2018-10-19T17:41:58.716Z,28.67
2018-10-19T17:44:27.045Z,30.47
2018-10-19T17:46:55.351Z,28.57
2018-10-19T17:49:23.685Z,30.07
2018-10-19T17:51:51.993Z,30.77
2018-10-19T17:54:20.338Z,31.03
2018-10-19T17:56:48.682Z,30.90
2018-10-19T17:59:17.075Z,29.40
2018-10-19T18:01:45.328Z,32.53
2018-10-19T18:04:13.666Z,32.50
2018-10-19T18:06:42.014Z,32.07
2018-10-19T18:09:11.306Z,32.63
2018-10-19T18:11:39.910Z,35.57
2018-10-19T18:14:08.290Z,33.60
2018-10-19T18:16:36.636Z,35.70
2018-10-19T18:19:05.262Z,32.00
2018-10-19T18:21:33.733Z,33.60
2018-10-19T18:24:02.005Z,33.67
2018-10-19T18:26:30.378Z,31.83
2018-10-19T18:28:58.742Z,34.83
2018-10-19T18:31:27.066Z,33.77
2018-10-19T18:33:55.395Z,36.50
2018-10-19T18:36:23.754Z,40.13
2018-10-19T18:38:52.076Z,33.57
2018-10-19T18:41:20.456Z,33.30
2018-10-19T18:43:48.879Z,30.63
2018-10-19T18:46:17.244Z,30.67
2018-10-19T18:48:45.662Z,32.83
2018-10-19T18:51:14.071Z,32.53
2018-10-19T18:53:42.398Z,31.43
2018-10-19T18:56:10.821Z,32.53
2018-10-19T18:58:39.124Z,33.30
2018-10-19T19:01:07.467Z,33.23
2018-10-19T19:03:35.782Z,34.43
2018-10-19T19:06:04.249Z,34.30
2018-10-19T19:08:32.569Z,36.00
2018-10-19T19:11:00.952Z,39.43
2018-10-19T19:13:30.534Z,43.97
2018-10-19T19:15:59.470Z,42.93
2018-10-19T19:18:27.845Z,41.17
2018-10-19T19:20:56.320Z,42.43
2018-10-19T19:23:24.637Z,40.33
2018-10-19T19:25:58.238Z,38.07
2018-10-19T19:28:26.537Z,36.90
2018-10-19T19:30:54.893Z,36.20
2018-10-19T19:33:28.530Z,39.40
2018-10-19T19:35:56.885Z,39.80
2018-10-19T19:38:25.203Z,37.80
2018-10-19T19:43:04.472Z,37.43
2018-10-19T19:45:32.809Z,38.67
2018-10-19T19:48:06.524Z,40.20
2018-10-19T19:50:34.876Z,37.40
2018-10-19T19:53:03.253Z,43.70
2018-10-19T19:55:31.544Z,43.90
2018-10-19T19:58:00.006Z,42.17
2018-10-19T20:00:28.318Z,40.97
2018-10-19T20:02:56.648Z,39.63
2018-10-19T20:05:24.990Z,38.10
2018-10-19T20:07:53.373Z,39.07
2018-10-19T20:10:21.648Z,38.23
2018-10-19T20:12:49.980Z,38.83
2018-10-19T20:15:18.297Z,38.13
2018-10-19T20:17:46.634Z,35.87
2018-10-19T20:20:15.022Z,36.23
2018-10-19T20:22:43.392Z,36.30
2018-10-19T20:25:12.483Z,38.20
2018-10-19T20:27:41.182Z,35.47
2018-10-19T20:30:12.097Z,37.47
2018-10-19T20:32:40.527Z,38.77
2018-10-19T20:35:09.233Z,39.03
2018-10-19T20:37:37.890Z,39.73
2018-10-19T20:40:06.229Z,39.97
2018-10-19T20:42:34.573Z,39.10
2018-10-19T20:45:03.013Z,43.70
2018-10-19T20:47:31.359Z,37.43
2018-10-19T20:49:59.738Z,38.03
2018-10-19T20:52:28.022Z,39.67
2018-10-19T20:54:56.347Z,38.67
2018-10-19T20:57:24.689Z,39.97
2018-10-19T20:59:53.245Z,37.43
2018-10-19T21:02:21.650Z,38.70
2018-10-19T21:04:50.041Z,41.53
2018-10-19T21:07:18.783Z,38.47
2018-10-19T21:09:47.154Z,37.23
2018-10-19T21:12:15.489Z,36.73
2018-10-19T21:14:43.792Z,40.07
2018-10-19T21:17:12.237Z,38.20
2018-10-19T21:19:40.558Z,39.33
2018-10-19T21:22:08.939Z,41.73
2018-10-19T21:24:37.245Z,45.37
2018-10-19T21:27:05.593Z,45.00
2018-10-19T21:29:33.932Z,42.53
2018-10-19T21:32:02.256Z,43.33
2018-10-19T21:34:30.657Z,42.30
2018-10-19T21:36:59.017Z,45.97
2018-10-19T21:39:27.350Z,46.47
2018-10-19T21:41:55.655Z,46.77
2018-10-19T21:44:23.980Z,45.63
2018-10-19T21:46:52.648Z,42.43
2018-10-19T21:49:21.020Z,43.60
2018-10-19T21:51:49.389Z,38.50
2018-10-19T21:54:17.685Z,41.00
2018-10-19T21:56:45.990Z,45.20
2018-10-19T21:59:14.425Z,44.03
2018-10-19T22:01:42.682Z,40.10
2018-10-19T22:04:11.004Z,42.90
2018-10-19T22:06:39.325Z,41.50
2018-10-19T22:09:10.100Z,39.60
2018-10-19T22:11:39.086Z,42.53
2018-10-19T22:14:07.685Z,40.03
2018-10-19T22:16:36.006Z,38.93
2018-10-19T22:19:04.671Z,39.37
2018-10-19T22:21:33.018Z,37.53
2018-10-19T22:24:01.345Z,39.00
2018-10-19T22:26:29.663Z,39.13
2018-10-19T22:28:58.011Z,40.13
2018-10-19T22:31:26.317Z,37.23
2018-10-19T22:33:54.726Z,36.90
2018-10-19T22:36:23.041Z,39.63
2018-10-19T22:38:51.413Z,37.07
2018-10-19T22:41:19.728Z,38.53
2018-10-19T22:43:48.092Z,37.33
2018-10-19T22:46:16.400Z,37.20
2018-10-19T22:48:44.731Z,36.30
2018-10-19T22:51:13.039Z,38.57
2018-10-19T22:53:41.376Z,38.20
2018-10-19T22:56:09.717Z,35.07
2018-10-19T22:58:38.060Z,38.93
2018-10-19T23:01:06.475Z,39.53
2018-10-19T23:03:34.841Z,40.63
2018-10-19T23:06:03.099Z,40.57
2018-10-19T23:08:31.434Z,39.27
2018-10-19T23:10:59.774Z,39.97
2018-10-19T23:13:28.103Z,39.97
2018-10-19T23:15:56.405Z,38.10
2018-10-19T23:18:24.738Z,42.83
2018-10-19T23:20:53.056Z,40.60
2018-10-19T23:23:21.377Z,43.23
2018-10-19T23:25:49.718Z,41.13
2018-10-19T23:28:18.002Z,36.90
2018-10-19T23:30:46.357Z,38.87
2018-10-19T23:33:14.646Z,37.13
2018-10-19T23:35:42.973Z,39.67
2018-10-19T23:38:11.278Z,39.80
2018-10-19T23:40:39.616Z,39.07
2018-10-19T23:43:08.018Z,39.03
2018-10-19T23:45:36.299Z,37.57
2018-10-19T23:48:04.625Z,37.10
2018-10-19T23:50:32.958Z,38.87
2018-10-19T23:53:01.299Z,36.07
2018-10-19T23:55:29.618Z,37.63
2018-10-19T23:57:57.927Z,37.83
